General Mariano Escobedo International Airport
MMMY : now visible

Airfield :











YOU CAN JOIN US ON...

 
LOGIN :

Register | Disclaimer

   EN    FR    IT 

 









Legend :    VFR   Marginal VFR   IFR   Intensive IFR   Very Intensive IFR
Visi :
Ceiling :
>= 8 km
>= 3000ft
5 to 8 km
1000 to 3000 ft
1500m to 5 km
500 to 1000 ft
800 to 1500m
200 to 500 ft
< 800m
< 200 ft
Symbols :   Thunderstorms  Fog  Heavy snow  Heavy precipitations  Wind > 20 kt






- Airport Elevation : 1278 ft
- IATA code : MTY


MMMY - General Mariano Escobedo International

CURRENT METAR :
  • 221241Z 05004KT 5SM BKN012 OVC020 26/22 A3002 RMK 8/5// HZY

EXPIRED METARs :
  • 221140Z 06004KT 5SM BKN015 OVC025 25/22 A2998 RMK SLP/// 5//// 9// 8/5// PRESRR
  • 221040Z 00000KT 6SM FEW070 24/22 A2992 RMK 8/010 ISOL SC

TAF COR TAF MMMY
Valid from the 22 at 12:00 until the 23 at 18:00 UTC


221201Z 2212/2318 08005KT 6SM HZ BKN015 OVC025 TX39/2221Z TN23/2212Z
TEMPO 2212/2216 5SM RA OVC010
FM221600 03012KT 6SM HZ BKN015
FM221800 03015KT 6SM HZ BKN025
TEMPO 2222/2302 6SM TSRA BKN020CB
FM230300 03012KT 6SM -RA BKN020CB OVC080
TEMPO 2304/2308 5SM TSRA
FM231000 03008KT 5SM HZ BKN012 OVC070
TEMPO 2312/2315 3SM BR BKN006 OVC010
MMFR FIR / North America



MET'MAP, your aeronautical weather chart ! - Copyright ORBIFLY December 2007 - Disclaimer

ORBIFLY MET'MAP TEAM :

Programming & Development : Alexandra Zaïnal
Original concept : Baudouin d'Aumeries
Technical & hardware support : Manuel Goepfert
Assistance : Marc-Olivier Méhu

Contact : metmap@orbifly.com




SOURCES & CREDITS :

   NOAA       Earth
Advisory